createdAt,value
2018-10-03T00:00:04.819Z,11.66
2018-10-03T00:01:04.792Z,11.73
2018-10-03T00:02:04.778Z,11.77
2018-10-03T00:03:04.805Z,11.83
2018-10-03T00:04:04.758Z,11.81
2018-10-03T00:05:04.760Z,11.83
2018-10-03T00:06:04.731Z,11.84
2018-10-03T00:07:04.729Z,11.86
2018-10-03T00:08:04.754Z,11.90
2018-10-03T00:09:04.700Z,11.95
2018-10-03T00:10:04.731Z,11.99
2018-10-03T00:11:04.679Z,12.00
2018-10-03T00:12:04.668Z,11.99
2018-10-03T00:13:04.689Z,11.95
2018-10-03T00:14:04.653Z,12.00
2018-10-03T00:15:04.666Z,11.97
2018-10-03T00:16:04.693Z,11.88
2018-10-03T00:17:04.610Z,11.95
2018-10-03T00:18:04.599Z,11.94
2018-10-03T00:19:04.589Z,12.03
2018-10-03T00:20:04.608Z,12.07
2018-10-03T00:21:04.570Z,12.09
2018-10-03T00:22:04.589Z,12.09
2018-10-03T00:23:04.543Z,12.09
2018-10-03T00:24:04.542Z,12.09
2018-10-03T00:25:04.561Z,12.10
2018-10-03T00:26:04.520Z,12.13
2018-10-03T00:27:04.502Z,12.09
2018-10-03T00:28:04.489Z,12.04
2018-10-03T00:29:04.518Z,12.10
2018-10-03T00:30:04.469Z,12.10
2018-10-03T00:31:04.456Z,12.09
2018-10-03T00:32:04.466Z,12.09
2018-10-03T00:33:04.436Z,12.12
2018-10-03T00:34:04.453Z,12.10
2018-10-03T00:35:04.415Z,12.09
2018-10-03T00:36:04.400Z,12.21
2018-10-03T00:37:04.392Z,12.10
2018-10-03T00:38:04.389Z,12.12
2018-10-03T00:39:04.390Z,12.15
2018-10-03T00:40:04.363Z,12.07
2018-10-03T00:41:04.372Z,12.13
2018-10-03T00:42:04.339Z,12.12
2018-10-03T00:43:04.318Z,12.21
2018-10-03T00:44:04.313Z,12.10
2018-10-03T00:45:04.302Z,12.15
2018-10-03T00:46:04.325Z,12.12
2018-10-03T00:47:04.279Z,12.12
2018-10-03T00:48:04.266Z,12.20
2018-10-03T00:49:04.256Z,12.06
2018-10-03T00:50:04.264Z,12.18
2018-10-03T00:51:04.289Z,12.21
2018-10-03T00:52:04.218Z,12.10
2018-10-03T00:53:04.211Z,12.18
2018-10-03T00:54:04.199Z,12.13
2018-10-03T00:55:04.186Z,12.04
2018-10-03T00:56:04.297Z,12.07
2018-10-03T00:57:04.168Z,12.04
2018-10-03T00:58:04.155Z,12.07
2018-10-03T00:59:04.140Z,12.12
2018-10-03T01:00:04.131Z,12.03
2018-10-03T01:01:04.158Z,12.10
2018-10-03T01:02:04.113Z,12.15
2018-10-03T01:03:04.101Z,12.00
2018-10-03T01:04:04.093Z,12.06
2018-10-03T01:05:04.076Z,12.09
2018-10-03T01:06:04.098Z,12.03
2018-10-03T01:07:04.057Z,12.06
2018-10-03T01:08:04.050Z,11.97
2018-10-03T01:09:04.034Z,11.94
2018-10-03T01:10:04.071Z,11.95
2018-10-03T01:11:04.011Z,11.90
2018-10-03T01:12:04.013Z,12.00
2018-10-03T01:13:03.994Z,11.95
2018-10-03T01:14:03.982Z,11.99
2018-10-03T01:15:04.021Z,11.95
2018-10-03T01:16:03.958Z,11.97
2018-10-03T01:17:03.946Z,12.00
2018-10-03T01:18:03.969Z,11.99
2018-10-03T01:19:03.969Z,11.95
2018-10-03T01:20:03.909Z,11.94
2018-10-03T01:21:03.898Z,11.94
2018-10-03T01:22:03.922Z,12.06
2018-10-03T01:23:03.876Z,12.06
2018-10-03T01:24:03.869Z,11.94
2018-10-03T01:25:03.881Z,11.99
2018-10-03T01:26:03.850Z,11.97
2018-10-03T01:27:03.832Z,11.97
2018-10-03T01:28:03.905Z,11.99
2018-10-03T01:29:03.845Z,11.91
2018-10-03T01:30:03.801Z,11.99
2018-10-03T01:31:03.838Z,11.95
2018-10-03T01:32:03.784Z,11.99
2018-10-03T01:33:03.770Z,11.91
2018-10-03T01:34:03.757Z,11.94
2018-10-03T01:35:03.748Z,11.94
2018-10-03T01:36:03.772Z,11.88
2018-10-03T01:37:03.749Z,11.84
2018-10-03T01:38:03.704Z,11.84
2018-10-03T01:39:03.697Z,11.84
2018-10-03T01:40:03.686Z,11.86
2018-10-03T01:41:03.722Z,11.86
2018-10-03T01:42:03.706Z,11.84
2018-10-03T01:43:03.653Z,11.91
2018-10-03T01:44:03.645Z,11.90
2018-10-03T01:45:03.631Z,11.81
2018-10-03T01:46:03.624Z,11.86
2018-10-03T01:47:03.659Z,11.81
2018-10-03T01:48:03.596Z,11.84
2018-10-03T01:49:03.588Z,11.81
2018-10-03T01:50:03.576Z,11.91
2018-10-03T01:51:03.562Z,11.84
2018-10-03T01:52:03.637Z,11.80
2018-10-03T01:53:03.542Z,11.88
2018-10-03T01:54:03.538Z,11.97
2018-10-03T01:55:03.553Z,11.90
2018-10-03T01:56:03.509Z,11.95
2018-10-03T01:57:03.527Z,11.94
2018-10-03T01:58:03.487Z,11.95
2018-10-03T01:59:03.474Z,11.99
2018-10-03T02:00:03.463Z,11.97
2018-10-03T02:01:03.479Z,11.90
2018-10-03T02:02:03.441Z,11.99
2018-10-03T02:03:03.462Z,11.94
2018-10-03T02:04:03.440Z,11.95
2018-10-03T02:05:03.405Z,11.95
2018-10-03T02:06:03.393Z,11.91
2018-10-03T02:07:03.382Z,11.95
2018-10-03T02:08:03.375Z,11.94
2018-10-03T02:09:03.405Z,11.87
2018-10-03T02:10:03.352Z,11.95
2018-10-03T02:11:03.416Z,11.88
2018-10-03T02:12:03.368Z,11.95
2018-10-03T02:13:03.327Z,11.86
2018-10-03T02:14:03.306Z,11.95
2018-10-03T02:15:03.295Z,11.90
2018-10-03T02:16:03.287Z,11.87
2018-10-03T02:17:03.361Z,11.81
2018-10-03T02:18:03.268Z,11.94
2018-10-03T02:19:03.250Z,11.86
2018-10-03T02:20:03.242Z,11.87
2018-10-03T02:21:03.233Z,11.91
2018-10-03T02:22:03.255Z,11.90
2018-10-03T02:23:03.240Z,11.90
2018-10-03T02:24:03.193Z,11.88
2018-10-03T02:25:03.181Z,11.91
2018-10-03T02:26:03.175Z,11.81
2018-10-03T02:27:03.190Z,11.81
2018-10-03T02:28:03.153Z,11.84
2018-10-03T02:29:03.143Z,11.80
2018-10-03T02:30:03.135Z,11.86
2018-10-03T02:31:03.156Z,11.81
2018-10-03T02:32:03.201Z,11.84
2018-10-03T02:33:03.144Z,11.90
2018-10-03T02:34:03.113Z,11.81
2018-10-03T02:35:03.071Z,11.81
2018-10-03T02:36:03.061Z,11.78
2018-10-03T02:37:03.047Z,11.86
2018-10-03T02:38:03.034Z,11.80
2018-10-03T02:39:03.159Z,11.75
2018-10-03T02:40:03.079Z,11.66
2018-10-03T02:41:03.003Z,11.73
2018-10-03T02:42:02.992Z,11.70
2018-10-03T02:43:03.020Z,11.72
2018-10-03T02:44:02.970Z,11.73
2018-10-03T02:45:02.999Z,11.73
2018-10-03T02:46:02.950Z,11.62
2018-10-03T02:47:02.937Z,11.68
2018-10-03T02:48:02.996Z,11.63
2018-10-03T02:49:02.913Z,11.62
2018-10-03T02:50:02.907Z,11.65
2018-10-03T02:51:02.909Z,11.62
2018-10-03T02:52:02.880Z,11.68
2018-10-03T02:53:02.898Z,11.72
2018-10-03T02:54:02.869Z,11.62
2018-10-03T02:55:02.888Z,11.65
2018-10-03T02:56:02.872Z,11.63
2018-10-03T02:57:02.861Z,11.66
2018-10-03T02:58:02.862Z,11.66
2018-10-03T02:59:02.807Z,11.72
2018-10-03T03:00:02.796Z,11.73
2018-10-03T03:01:02.782Z,11.60
2018-10-03T03:02:02.803Z,11.66
2018-10-03T03:03:02.760Z,11.70
2018-10-03T03:04:02.749Z,11.70
2018-10-03T03:05:02.738Z,11.75
2018-10-03T03:06:02.728Z,11.75
2018-10-03T03:07:02.758Z,11.72
2018-10-03T03:08:02.703Z,11.66
2018-10-03T03:09:02.755Z,11.70
2018-10-03T03:10:02.680Z,11.72
2018-10-03T03:11:02.703Z,11.77
2018-10-03T03:12:02.658Z,11.70
2018-10-03T03:13:02.658Z,11.77
2018-10-03T03:14:02.632Z,11.86
2018-10-03T03:15:02.632Z,11.78
2018-10-03T03:16:02.648Z,11.78
2018-10-03T03:17:02.602Z,11.81
2018-10-03T03:18:02.594Z,11.86
2018-10-03T03:19:02.578Z,11.87
2018-10-03T03:20:02.575Z,12.00
2018-10-03T03:21:02.587Z,11.99
2018-10-03T03:22:02.567Z,11.94
2018-10-03T03:23:02.536Z,11.95
2018-10-03T03:24:02.579Z,11.95
2018-10-03T03:25:02.512Z,12.06
2018-10-03T03:26:02.502Z,12.02
2018-10-03T03:27:02.488Z,12.09
2018-10-03T03:28:02.487Z,12.15
2018-10-03T03:29:02.487Z,12.13
2018-10-03T03:30:02.504Z,12.15
2018-10-03T03:31:02.462Z,12.04
2018-10-03T03:32:02.446Z,12.17
2018-10-03T03:33:02.460Z,12.21
2018-10-03T03:34:02.413Z,12.22
2018-10-03T03:35:02.439Z,12.13
2018-10-03T03:36:02.389Z,12.07
2018-10-03T03:37:02.378Z,12.17
2018-10-03T03:38:02.367Z,12.24
2018-10-03T03:39:02.415Z,12.20
2018-10-03T03:40:02.346Z,12.15
2018-10-03T03:41:02.334Z,12.15
2018-10-03T03:42:02.330Z,12.07
2018-10-03T03:43:02.312Z,12.12
2018-10-03T03:44:02.363Z,12.10
2018-10-03T03:45:02.286Z,12.06
2018-10-03T03:46:02.322Z,12.13
2018-10-03T03:47:02.286Z,12.20
2018-10-03T03:48:02.261Z,12.15
2018-10-03T03:49:02.247Z,12.21
2018-10-03T03:50:02.233Z,12.15
2018-10-03T03:51:02.258Z,12.09
2018-10-03T03:52:02.214Z,12.15
2018-10-03T03:53:02.201Z,12.15
2018-10-03T03:54:02.185Z,12.10
2018-10-03T03:55:02.215Z,12.18
2018-10-03T03:56:02.171Z,12.10
2018-10-03T03:57:02.159Z,12.04
2018-10-03T03:58:02.144Z,12.10
2018-10-03T03:59:02.137Z,12.17
2018-10-03T04:00:02.148Z,12.10
2018-10-03T04:01:02.107Z,12.10
2018-10-03T04:02:02.127Z,12.17
2018-10-03T04:03:02.099Z,12.07
2018-10-03T04:04:02.075Z,12.20
2018-10-03T04:05:02.072Z,12.20
2018-10-03T04:06:02.088Z,12.25
2018-10-03T04:07:02.044Z,12.25
2018-10-03T04:08:02.092Z,12.17
2018-10-03T04:09:02.021Z,12.24
2018-10-03T04:10:02.012Z,12.22
2018-10-03T04:11:02.061Z,12.15
2018-10-03T04:12:01.990Z,12.20
2018-10-03T04:13:01.977Z,12.21
2018-10-03T04:14:01.991Z,12.15
2018-10-03T04:15:01.953Z,12.21
2018-10-03T04:16:01.944Z,12.21
2018-10-03T04:17:01.936Z,12.22
2018-10-03T04:18:01.919Z,12.20
2018-10-03T04:19:01.956Z,12.24
2018-10-03T04:20:01.897Z,12.27
2018-10-03T04:21:01.889Z,12.24
2018-10-03T04:22:01.892Z,12.27
2018-10-03T04:23:01.867Z,12.27
2018-10-03T04:24:01.974Z,12.29
2018-10-03T04:25:01.852Z,12.28
2018-10-03T04:26:01.877Z,12.27
2018-10-03T04:27:01.853Z,12.32
2018-10-03T04:28:01.811Z,12.25
2018-10-03T04:29:01.799Z,12.32
2018-10-03T04:30:01.791Z,12.36
2018-10-03T04:31:01.806Z,12.24
2018-10-03T04:32:01.771Z,12.39
2018-10-03T04:33:01.782Z,12.35
2018-10-03T04:34:01.742Z,12.29
2018-10-03T04:35:01.768Z,12.25
2018-10-03T04:36:01.722Z,12.29
2018-10-03T04:37:01.717Z,12.28
2018-10-03T04:38:01.710Z,12.25
2018-10-03T04:39:01.689Z,12.22
2018-10-03T04:40:01.768Z,12.25
2018-10-03T04:41:01.707Z,12.18
2018-10-03T04:42:01.747Z,12.25
2018-10-03T04:43:01.714Z,12.28
2018-10-03T04:44:01.635Z,12.27
2018-10-03T04:45:01.620Z,12.25
2018-10-03T04:46:01.611Z,12.21
2018-10-03T04:47:01.642Z,12.18
2018-10-03T04:48:01.588Z,12.15
2018-10-03T04:49:01.655Z,12.21
2018-10-03T04:50:01.564Z,12.15
2018-10-03T04:51:01.556Z,12.15
2018-10-03T04:52:01.584Z,12.12
2018-10-03T04:53:01.534Z,12.24
2018-10-03T04:54:01.524Z,12.07
2018-10-03T04:55:01.533Z,12.07
2018-10-03T04:56:01.495Z,12.15
2018-10-03T04:57:01.536Z,12.15
2018-10-03T04:58:01.504Z,12.02
2018-10-03T04:59:01.521Z,12.07
2018-10-03T05:00:01.470Z,12.09
2018-10-03T05:01:01.447Z,12.13
2018-10-03T05:02:01.427Z,12.06
2018-10-03T05:03:01.426Z,12.06
2018-10-03T05:04:01.519Z,12.10
2018-10-03T05:05:01.401Z,11.95
2018-10-03T05:06:01.436Z,11.91
2018-10-03T05:07:01.408Z,11.95
2018-10-03T05:08:01.376Z,11.95
2018-10-03T05:09:01.358Z,11.94
2018-10-03T05:10:01.356Z,11.95
2018-10-03T05:11:01.366Z,11.99
2018-10-03T05:12:01.344Z,11.95
2018-10-03T05:13:01.316Z,11.86
2018-10-03T05:14:01.329Z,11.86
2018-10-03T05:15:01.321Z,11.78
2018-10-03T05:16:01.313Z,11.75
2018-10-03T05:17:01.262Z,11.75
2018-10-03T05:18:01.251Z,11.73
2018-10-03T05:19:01.241Z,11.72
2018-10-03T05:20:01.236Z,11.70
2018-10-03T05:21:01.256Z,11.59
2018-10-03T05:22:01.241Z,11.66
2018-10-03T05:23:01.236Z,11.62
2018-10-03T05:24:01.258Z,11.59
2018-10-03T05:25:01.206Z,11.55
2018-10-03T05:26:01.160Z,11.50
2018-10-03T05:27:01.159Z,11.54
2018-10-03T05:28:01.286Z,11.48
2018-10-03T05:29:01.130Z,11.57
2018-10-03T05:30:01.118Z,11.54
2018-10-03T05:31:01.114Z,11.48
2018-10-03T05:32:01.100Z,11.50
2018-10-03T05:33:01.127Z,11.41
2018-10-03T05:34:01.102Z,11.51
2018-10-03T05:35:01.062Z,11.44
2018-10-03T05:36:01.080Z,11.50
2018-10-03T05:37:01.044Z,11.44
2018-10-03T05:38:01.031Z,11.40
2018-10-03T05:39:01.064Z,11.35
2018-10-03T05:40:01.011Z,11.33
2018-10-03T05:41:01.035Z,11.32
2018-10-03T05:42:00.987Z,11.35
2018-10-03T05:43:01.007Z,11.33
2018-10-03T05:44:00.965Z,11.29
2018-10-03T05:45:01.043Z,11.23
2018-10-03T05:46:00.944Z,11.29
2018-10-03T05:47:00.946Z,11.33
2018-10-03T05:48:00.950Z,11.22
2018-10-03T05:49:00.916Z,11.29
2018-10-03T05:50:00.922Z,11.19
2018-10-03T05:51:00.918Z,11.18
2018-10-03T05:52:00.880Z,11.22
2018-10-03T05:53:00.867Z,11.25
2018-10-03T05:54:00.856Z,11.22
2018-10-03T05:55:01.043Z,11.27
2018-10-03T05:56:00.834Z,11.22
2018-10-03T05:57:00.830Z,11.19
2018-10-03T05:58:00.811Z,11.23
2018-10-03T05:59:00.806Z,11.22
2018-10-03T06:00:00.901Z,11.14
2018-10-03T06:01:00.779Z,11.19
2018-10-03T06:02:00.770Z,11.15
2018-10-03T06:03:00.997Z,11.15
2018-10-03T06:04:00.815Z,11.18
2018-10-03T06:05:00.735Z,11.10
2018-10-03T06:06:00.727Z,11.07
2018-10-03T06:07:00.715Z,11.11
2018-10-03T06:08:00.731Z,11.14
2018-10-03T06:09:00.694Z,11.15
2018-10-03T06:10:00.686Z,11.25
2018-10-03T06:11:00.706Z,11.29
2018-10-03T06:12:00.683Z,11.17
2018-10-03T06:13:00.655Z,11.17
2018-10-03T06:14:00.669Z,11.17
2018-10-03T06:15:00.633Z,11.19
2018-10-03T06:16:00.656Z,11.18
2018-10-03T06:17:00.603Z,11.14
2018-10-03T06:18:00.612Z,11.25
2018-10-03T06:19:00.667Z,11.25
2018-10-03T06:20:00.585Z,11.27
2018-10-03T06:21:00.649Z,11.26
2018-10-03T06:22:00.559Z,11.26
2018-10-03T06:23:00.596Z,11.26
2018-10-03T06:24:00.524Z,11.32
2018-10-03T06:25:00.518Z,11.23
2018-10-03T06:26:00.545Z,11.26
2018-10-03T06:27:00.505Z,11.27
2018-10-03T06:28:00.586Z,11.25
2018-10-03T06:29:00.474Z,11.27
2018-10-03T06:30:00.628Z,11.23
2018-10-03T06:31:00.451Z,11.29
2018-10-03T06:32:00.452Z,11.25
2018-10-03T06:33:00.465Z,11.33
2018-10-03T06:34:00.419Z,11.23
2018-10-03T06:35:00.841Z,11.23
2018-10-03T06:36:00.396Z,11.26
2018-10-03T06:37:00.394Z,11.26
2018-10-03T06:38:00.427Z,11.25
2018-10-03T06:39:01.288Z,11.33
2018-10-03T06:40:00.368Z,11.29
2018-10-03T06:41:00.353Z,11.35
2018-10-03T06:42:00.370Z,11.26
2018-10-03T06:43:00.332Z,11.19
2018-10-03T06:44:00.304Z,11.22
2018-10-03T06:45:00.367Z,11.37
2018-10-03T06:46:00.332Z,11.35
2018-10-03T06:47:00.278Z,11.36
2018-10-03T06:48:00.269Z,11.33
2018-10-03T06:49:00.259Z,11.33
2018-10-03T06:50:00.384Z,11.41
2018-10-03T06:51:00.245Z,11.36
2018-10-03T06:52:00.313Z,11.40
2018-10-03T06:53:00.259Z,11.33
2018-10-03T06:54:00.203Z,11.37
2018-10-03T06:55:00.896Z,11.30
2018-10-03T06:56:00.570Z,11.41
2018-10-03T06:57:00.257Z,11.47
2018-10-03T06:58:00.208Z,11.47
2018-10-03T06:59:00.146Z,11.43
2018-10-03T07:00:00.164Z,11.45
2018-10-03T07:01:00.276Z,11.51
2018-10-03T07:02:00.163Z,11.44
2018-10-03T07:03:00.761Z,11.47
2018-10-03T07:04:00.546Z,11.45
2018-10-03T07:05:00.080Z,11.50
2018-10-03T07:06:00.068Z,11.47
2018-10-03T07:07:00.057Z,11.50
2018-10-03T07:08:00.042Z,11.55
2018-10-03T07:09:00.064Z,11.54
2018-10-03T07:10:00.090Z,11.51
2018-10-03T07:11:00.015Z,11.63
2018-10-03T07:12:00.044Z,11.54
2018-10-03T07:13:00.054Z,11.55
2018-10-03T07:13:59.993Z,11.55
2018-10-03T07:15:00.012Z,11.68
2018-10-03T07:15:59.964Z,11.60
2018-10-03T07:16:59.942Z,11.57
2018-10-03T07:17:59.937Z,11.57
2018-10-03T07:19:02.880Z,11.60
2018-10-03T07:20:00.012Z,11.59
2018-10-03T07:20:59.901Z,11.57
2018-10-03T07:21:59.891Z,11.60
2018-10-03T07:22:59.913Z,11.59
2018-10-03T07:23:59.903Z,11.68
2018-10-03T07:24:59.905Z,11.55
2018-10-03T07:25:59.908Z,11.60
2018-10-03T07:26:59.902Z,11.57
2018-10-03T07:27:59.827Z,11.62
2018-10-03T07:28:59.817Z,11.60
2018-10-03T07:29:59.831Z,11.65
2018-10-03T07:30:59.793Z,11.62
2018-10-03T07:31:59.809Z,11.70
2018-10-03T07:32:59.768Z,11.73
2018-10-03T07:33:59.796Z,11.70
2018-10-03T07:34:59.744Z,11.75
2018-10-03T07:35:59.731Z,11.78
2018-10-03T07:36:59.753Z,11.77
2018-10-03T07:37:59.756Z,11.88
2018-10-03T07:38:59.702Z,11.95
2018-10-03T07:39:59.689Z,11.95
2018-10-03T07:40:59.729Z,11.95
2018-10-03T07:41:59.744Z,11.95
2018-10-03T07:42:59.684Z,11.94
2018-10-03T07:43:59.727Z,12.06
2018-10-03T07:44:59.632Z,12.07
2018-10-03T07:45:59.628Z,12.06
2018-10-03T07:46:59.619Z,12.09
2018-10-03T07:47:59.869Z,12.10
2018-10-03T07:48:59.598Z,12.06
2018-10-03T07:49:59.583Z,12.20
2018-10-03T07:50:59.571Z,12.24
2018-10-03T07:51:59.602Z,12.22
2018-10-03T07:52:59.578Z,12.18
2018-10-03T07:53:59.624Z,12.24
2018-10-03T07:54:59.524Z,12.21
2018-10-03T07:55:59.668Z,12.35
2018-10-03T07:56:59.501Z,12.22
2018-10-03T07:57:59.562Z,12.29
2018-10-03T07:58:59.526Z,12.25
2018-10-03T07:59:59.473Z,12.36
2018-10-03T08:00:59.457Z,12.42
2018-10-03T08:01:59.441Z,12.42
2018-10-03T08:02:59.487Z,12.46
2018-10-03T08:03:59.433Z,12.49
2018-10-03T08:04:59.417Z,12.43
2018-10-03T08:05:59.416Z,12.49
2018-10-03T08:06:59.385Z,12.54
2018-10-03T08:07:59.420Z,12.49
2018-10-03T08:08:59.461Z,12.58
2018-10-03T08:09:59.440Z,12.58
2018-10-03T08:10:59.346Z,12.57
2018-10-03T08:11:59.334Z,12.58
2018-10-03T08:12:59.321Z,12.70
2018-10-03T08:13:59.359Z,12.68
2018-10-03T08:14:59.303Z,12.76
2018-10-03T08:15:59.323Z,12.72
2018-10-03T08:16:59.297Z,12.82
2018-10-03T08:17:59.273Z,12.73
2018-10-03T08:18:59.315Z,12.79
2018-10-03T08:19:59.254Z,12.82
2018-10-03T08:20:59.234Z,12.86
2018-10-03T08:21:59.270Z,12.85
2018-10-03T08:22:59.219Z,12.86
2018-10-03T08:23:59.234Z,12.93
2018-10-03T08:24:59.286Z,12.87
2018-10-03T08:25:59.177Z,12.94
2018-10-03T08:26:59.169Z,12.93
2018-10-03T08:27:59.983Z,12.94
2018-10-03T08:28:59.149Z,12.94
2018-10-03T08:29:59.199Z,12.98
2018-10-03T08:30:59.128Z,13.01
2018-10-03T08:31:59.156Z,12.97
2018-10-03T08:32:59.207Z,12.97
2018-10-03T08:33:59.098Z,13.05
2018-10-03T08:34:59.168Z,13.01
2018-10-03T08:35:59.083Z,13.01
2018-10-03T08:36:59.069Z,13.04
2018-10-03T08:37:59.153Z,13.08
2018-10-03T08:38:59.414Z,12.98
2018-10-03T08:39:59.027Z,13.09
2018-10-03T08:40:59.017Z,13.13
2018-10-03T08:41:59.000Z,13.01
2018-10-03T08:42:59.149Z,13.15
2018-10-03T08:43:59.046Z,13.11
2018-10-03T08:44:59.033Z,13.12
2018-10-03T08:45:59.144Z,13.12
2018-10-03T08:46:59.005Z,13.20
2018-10-03T08:47:58.942Z,13.09
2018-10-03T08:49:00.412Z,13.13
2018-10-03T08:49:58.921Z,13.13
2018-10-03T08:50:58.908Z,13.09
2018-10-03T08:51:58.995Z,13.08
2018-10-03T08:52:58.934Z,13.13
2018-10-03T08:53:58.909Z,13.11
2018-10-03T08:54:58.857Z,13.20
2018-10-03T08:55:58.946Z,13.15
2018-10-03T08:56:58.960Z,13.22
2018-10-03T08:57:58.993Z,13.23
2018-10-03T08:58:58.812Z,13.27
2018-10-03T08:59:58.811Z,13.28
2018-10-03T09:00:58.796Z,13.28
2018-10-03T09:01:59.781Z,13.30
2018-10-03T09:02:58.772Z,13.31
2018-10-03T09:03:58.760Z,13.41
2018-10-03T09:04:58.756Z,13.44
2018-10-03T09:05:58.766Z,13.47
2018-10-03T09:06:58.725Z,13.41
2018-10-03T09:07:58.719Z,13.42
2018-10-03T09:08:58.733Z,13.44
2018-10-03T09:09:58.691Z,13.56
2018-10-03T09:10:58.692Z,13.52
2018-10-03T09:11:59.321Z,13.47
2018-10-03T09:12:58.659Z,13.62
2018-10-03T09:13:58.697Z,13.54
2018-10-03T09:14:58.640Z,13.60
2018-10-03T09:15:58.658Z,13.60
2018-10-03T09:16:58.635Z,13.52
2018-10-03T09:17:58.613Z,13.63
2018-10-03T09:18:58.620Z,13.59
2018-10-03T09:19:58.656Z,13.56
2018-10-03T09:20:58.571Z,13.57
2018-10-03T09:21:59.321Z,13.52
2018-10-03T09:23:00.008Z,13.67
2018-10-03T09:23:58.543Z,13.62
2018-10-03T09:24:58.522Z,13.68
2018-10-03T09:25:58.566Z,13.65
2018-10-03T09:26:58.539Z,13.75
2018-10-03T09:27:58.527Z,13.74
2018-10-03T09:28:58.558Z,13.71
2018-10-03T09:29:58.478Z,13.77
2018-10-03T09:30:58.461Z,13.79
2018-10-03T09:31:58.499Z,13.83
2018-10-03T09:32:58.439Z,13.93
2018-10-03T09:33:58.426Z,13.90
2018-10-03T09:34:58.428Z,13.95
2018-10-03T09:35:58.407Z,13.97
2018-10-03T09:36:58.505Z,14.00
2018-10-03T09:37:58.380Z,14.03
2018-10-03T09:38:58.367Z,14.11
2018-10-03T09:39:58.361Z,14.08
2018-10-03T09:40:58.353Z,14.22
2018-10-03T09:41:58.471Z,14.22
2018-10-03T09:42:58.368Z,14.17
2018-10-03T09:43:58.315Z,14.20
2018-10-03T09:44:58.352Z,14.17
2018-10-03T09:45:58.330Z,14.25
2018-10-03T09:46:58.311Z,14.23
2018-10-03T09:47:58.304Z,14.25
2018-10-03T09:48:58.256Z,14.35
2018-10-03T09:49:58.260Z,14.28
2018-10-03T09:50:58.237Z,14.37
2018-10-03T09:51:58.228Z,14.43
2018-10-03T09:52:58.266Z,14.35
2018-10-03T09:53:58.206Z,14.41
2018-10-03T09:54:58.237Z,14.32
2018-10-03T09:55:58.196Z,14.32
2018-10-03T09:56:58.200Z,14.32
2018-10-03T09:57:58.160Z,14.35
2018-10-03T09:58:58.154Z,14.37
2018-10-03T09:59:58.374Z,14.37
2018-10-03T10:00:58.247Z,14.40
2018-10-03T10:01:58.120Z,14.41
2018-10-03T10:02:58.108Z,14.41
2018-10-03T10:03:58.100Z,14.33
2018-10-03T10:04:58.111Z,14.26
2018-10-03T10:05:58.072Z,14.23
2018-10-03T10:06:58.069Z,14.35
2018-10-03T10:07:58.053Z,14.26
2018-10-03T10:08:58.091Z,14.23
2018-10-03T10:09:58.050Z,14.30
2018-10-03T10:10:58.064Z,14.36
2018-10-03T10:11:58.005Z,14.30
2018-10-03T10:12:58.034Z,14.35
2018-10-03T10:13:57.986Z,14.43
2018-10-03T10:14:57.975Z,14.30
2018-10-03T10:15:57.964Z,14.43
2018-10-03T10:16:57.984Z,14.41
2018-10-03T10:17:57.953Z,14.40
2018-10-03T10:18:57.935Z,14.55
2018-10-03T10:19:57.982Z,14.59
2018-10-03T10:20:58.013Z,14.60
2018-10-03T10:21:57.903Z,14.60
2018-10-03T10:22:57.884Z,14.60
2018-10-03T10:23:57.880Z,14.66
2018-10-03T10:24:57.894Z,14.73
2018-10-03T10:25:57.860Z,14.73
2018-10-03T10:26:57.847Z,14.77
2018-10-03T10:27:57.872Z,14.86
2018-10-03T10:28:57.900Z,14.79
2018-10-03T10:29:57.810Z,14.73
2018-10-03T10:30:57.813Z,14.77
2018-10-03T10:31:57.914Z,14.81
2018-10-03T10:32:57.961Z,14.78
2018-10-03T10:33:57.886Z,14.73
2018-10-03T10:34:57.775Z,14.73
2018-10-03T10:35:57.748Z,14.81
2018-10-03T10:36:57.745Z,14.78
2018-10-03T10:37:57.729Z,14.77
2018-10-03T10:38:57.755Z,14.85
2018-10-03T10:39:57.795Z,14.92
2018-10-03T10:40:57.780Z,14.91
2018-10-03T10:41:57.689Z,14.91
2018-10-03T10:42:57.680Z,15.00
2018-10-03T10:43:57.669Z,14.99
2018-10-03T10:44:57.678Z,15.00
2018-10-03T10:45:57.632Z,15.03
2018-10-03T10:46:57.676Z,15.02
2018-10-03T10:47:57.612Z,14.94
2018-10-03T10:48:57.605Z,14.89
2018-10-03T10:49:57.603Z,14.86
2018-10-03T10:50:57.601Z,14.86
2018-10-03T10:51:57.615Z,14.96
2018-10-03T10:52:57.587Z,14.88
2018-10-03T10:53:57.593Z,15.02
2018-10-03T10:54:57.532Z,14.97
2018-10-03T10:55:57.520Z,14.94
2018-10-03T10:56:57.514Z,14.99
2018-10-03T10:57:57.502Z,15.10
2018-10-03T10:58:57.535Z,15.06
2018-10-03T10:59:57.497Z,15.11
2018-10-03T11:00:57.486Z,15.10
2018-10-03T11:01:57.455Z,15.18
2018-10-03T11:02:57.474Z,15.21
2018-10-03T11:03:57.434Z,15.36
2018-10-03T11:04:57.424Z,15.31
2018-10-03T11:05:57.441Z,15.35
2018-10-03T11:06:57.401Z,15.33
2018-10-03T11:07:57.393Z,15.28
2018-10-03T11:08:57.389Z,15.36
2018-10-03T11:09:57.362Z,15.36
2018-10-03T11:10:57.395Z,15.44
2018-10-03T11:11:57.342Z,15.47
2018-10-03T11:12:57.336Z,15.49
2018-10-03T11:13:57.320Z,15.59
2018-10-03T11:14:57.349Z,15.57
2018-10-03T11:15:57.310Z,15.57
2018-10-03T11:16:57.372Z,15.62
2018-10-03T11:17:57.279Z,15.61
2018-10-03T11:18:57.267Z,15.72
2018-10-03T11:19:57.286Z,15.75
2018-10-03T11:20:57.244Z,15.70
2018-10-03T11:21:57.274Z,15.70
2018-10-03T11:22:57.224Z,15.75
2018-10-03T11:23:57.646Z,15.73
2018-10-03T11:24:57.334Z,15.83
2018-10-03T11:25:57.191Z,15.83
2018-10-03T11:26:57.232Z,15.79
2018-10-03T11:27:57.170Z,15.80
2018-10-03T11:28:57.152Z,15.77
2018-10-03T11:29:57.149Z,15.68
2018-10-03T11:30:57.168Z,15.64
2018-10-03T11:31:57.140Z,15.57
2018-10-03T11:32:57.112Z,15.57
2018-10-03T11:33:57.101Z,15.54
2018-10-03T11:34:57.132Z,15.43
2018-10-03T11:35:57.089Z,15.44
2018-10-03T11:36:57.075Z,15.36
2018-10-03T11:37:57.068Z,15.44
2018-10-03T11:38:57.067Z,15.44
2018-10-03T11:39:57.033Z,15.42
2018-10-03T11:40:57.088Z,15.49
2018-10-03T11:41:57.009Z,15.55
2018-10-03T11:42:57.033Z,15.62
2018-10-03T11:43:57.035Z,15.59
2018-10-03T11:44:56.980Z,15.61
2018-10-03T11:45:57.005Z,15.73
2018-10-03T11:46:56.963Z,15.80
2018-10-03T11:47:56.943Z,15.75
2018-10-03T11:48:56.930Z,15.75
2018-10-03T11:49:56.971Z,15.77
2018-10-03T11:50:56.927Z,15.77
2018-10-03T11:51:56.927Z,15.70
2018-10-03T11:52:56.891Z,15.76
2018-10-03T11:53:56.875Z,15.72
2018-10-03T11:54:56.867Z,15.75
2018-10-03T11:55:56.891Z,15.76
2018-10-03T11:56:56.910Z,15.82
2018-10-03T11:57:56.830Z,15.83
2018-10-03T11:58:56.823Z,15.80
2018-10-03T11:59:56.807Z,15.84
2018-10-03T12:00:56.832Z,15.92
2018-10-03T12:01:56.832Z,16.12
2018-10-03T12:02:56.908Z,16.08
2018-10-03T12:03:56.818Z,16.23
2018-10-03T12:04:56.761Z,16.23
2018-10-03T12:05:56.752Z,16.16
2018-10-03T12:06:57.033Z,16.21
2018-10-03T12:07:56.766Z,16.12
2018-10-03T12:08:56.711Z,16.20
2018-10-03T12:09:56.702Z,16.17
2018-10-03T12:10:56.737Z,16.28
2018-10-03T12:11:56.683Z,16.29
2018-10-03T12:12:56.724Z,16.36
2018-10-03T12:13:56.654Z,16.49
2018-10-03T12:14:56.653Z,16.61
2018-10-03T12:15:56.640Z,16.81
2018-10-03T12:16:56.623Z,16.97
2018-10-03T12:17:56.661Z,17.19
2018-10-03T12:18:56.606Z,17.27
2018-10-03T12:19:56.589Z,17.52
2018-10-03T12:20:56.578Z,17.67
2018-10-03T12:21:56.570Z,17.80
2018-10-03T12:22:56.631Z,17.86
2018-10-03T12:23:56.543Z,17.83
2018-10-03T12:24:56.567Z,17.92
2018-10-03T12:25:56.521Z,18.11
2018-10-03T12:26:56.511Z,18.28
2018-10-03T12:27:56.548Z,18.33
2018-10-03T12:28:56.563Z,18.26
2018-10-03T12:29:56.485Z,18.38
2018-10-03T12:30:56.483Z,18.08
2018-10-03T12:31:56.489Z,17.90
2018-10-03T12:32:56.457Z,17.89
2018-10-03T12:33:56.544Z,17.94
2018-10-03T12:34:56.446Z,17.90
2018-10-03T12:35:56.416Z,17.87
2018-10-03T12:36:56.433Z,17.80
2018-10-03T12:37:56.386Z,17.82
2018-10-03T12:38:56.449Z,17.65
2018-10-03T12:39:56.375Z,17.57
2018-10-03T12:40:56.396Z,17.30
2018-10-03T12:41:56.347Z,17.20
2018-10-03T12:42:56.373Z,17.09
2018-10-03T12:43:56.326Z,16.86
2018-10-03T12:44:56.452Z,16.81
2018-10-03T12:45:56.305Z,16.83
2018-10-03T12:46:56.307Z,16.72
2018-10-03T12:47:56.304Z,16.69
2018-10-03T12:48:56.271Z,16.72
2018-10-03T12:49:56.289Z,16.66
2018-10-03T12:50:56.278Z,16.65
2018-10-03T12:51:56.254Z,16.64